Observation data for Sundown on 12/09/2018      Previous  Date       Current Mesonet Observations  Soil Data  Daily Summary Page  Observations in Plain Language
KSDS 090600Z 27003KT M08/M09 A3029 RMK A01 T10801090  RH  093%=      5-min Rain = 0
KSDS 090605Z 27003KT M08/M09 A3029 RMK A01 T10801090  RH  093%=      5-min Rain = 0
KSDS 090610Z 27003KT M08/M09 A3029 RMK A01 T10801090  RH  093%=      5-min Rain = 0
KSDS 090615Z 28003KT M08/M09 A3029 RMK A01 T10811090  RH  093%=      5-min Rain = 0
KSDS 090620Z 28004KT M08/M09 A3029 RMK A01 T10821091  RH  093%=      5-min Rain = 0
KSDS 090625Z 28004KT M08/M09 A3029 RMK A01 T10821091  RH  093%=      5-min Rain = 0
KSDS 090630Z 28003KT M08/M09 A3028 RMK A01 T10821091  RH  093%=      5-min Rain = 0
KSDS 090635Z 28004KT M08/M09 A3028 RMK A01 T10821092  RH  093%=      5-min Rain = 0
KSDS 090640Z 29004KT M08/M09 A3028 RMK A01 T10831092  RH  093%=      5-min Rain = 0
KSDS 090645Z 29004KT M08/M09 A3028 RMK A01 T10831092  RH  093%=      5-min Rain = 0
KSDS 090650Z 30004KT M08/M09 A3028 RMK A01 T10831092  RH  093%=      5-min Rain = 0
KSDS 090655Z 30003KT M08/M09 A3028 RMK A01 T10821090  RH  093%=      5-min Rain = 0
KSDS 090700Z 31003KT M08/M09 A3028 RMK A01 T10811090  RH  093%=      5-min Rain = 0
KSDS 090705Z 31004KT M08/M09 A3028 RMK A01 T10821091  RH  093%=      5-min Rain = 0
KSDS 090710Z 32004KT M08/M09 A3028 RMK A01 T10821091  RH  093%=      5-min Rain = 0
KSDS 090715Z 31003KT M08/M09 A3027 RMK A01 T10831092  RH  093%=      5-min Rain = 0
KSDS 090720Z 32004KT M08/M09 A3027 RMK A01 T10831092  RH  093%=      5-min Rain = 0
KSDS 090725Z 32004KT M08/M09 A3027 RMK A01 T10831093  RH  093%=      5-min Rain = 0
KSDS 090730Z 31004KT M08/M09 A3027 RMK A01 T10841093  RH  093%=      5-min Rain = 0
KSDS 090735Z 30004KT M08/M09 A3027 RMK A01 T10841094  RH  092%=      5-min Rain = 0
KSDS 090740Z 31004KT M08/M09 A3027 RMK A01 T10841094  RH  092%=      5-min Rain = 0
KSDS 090745Z 31004KT M08/M10 A3027 RMK A01 T10841095  RH  092%=      5-min Rain = 0
KSDS 090750Z 31004KT M08/M10 A3027 RMK A01 T10841095  RH  092%=      5-min Rain = 0
KSDS 090755Z 31004KT M08/M09 A3027 RMK A01 T10821092  RH  092%=      5-min Rain = 0
KSDS 090800Z 30004KT M08/M09 A3027 RMK A01 T10821091  RH  092%=      5-min Rain = 0
KSDS 090805Z 29004KT M08/M09 A3027 RMK A01 T10811092  RH  092%=      5-min Rain = 0
KSDS 090810Z 28004KT M08/M09 A3027 RMK A01 T10811091  RH  092%=      5-min Rain = 0
KSDS 090815Z 29004KT M08/M09 A3027 RMK A01 T10811092  RH  092%=      5-min Rain = 0
KSDS 090820Z 30004KT M08/M09 A3027 RMK A01 T10811092  RH  092%=      5-min Rain = 0
KSDS 090825Z 30004KT M08/M09 A3027 RMK A01 T10811092  RH  092%=      5-min Rain = 0
KSDS 090830Z 30004KT M08/M09 A3027 RMK A01 T10811092  RH  092%=      5-min Rain = 0
KSDS 090835Z 29005KT M08/M09 A3027 RMK A01 T10811092  RH  092%=      5-min Rain = 0
KSDS 090840Z 30005KT M08/M09 A3027 RMK A01 T10811091  RH  092%=      5-min Rain = 0
KSDS 090845Z 31004KT M08/M09 A3027 RMK A01 T10811091  RH  092%=      5-min Rain = 0
KSDS 090850Z 30004KT M08/M09 A3027 RMK A01 T10801090  RH  092%=      5-min Rain = 0
KSDS 090855Z 29004KT M08/M09 A3027 RMK A01 T10811092  RH  092%=      5-min Rain = 0
KSDS 090900Z 30004KT M08/M09 A3027 RMK A01 T10831093  RH  092%=      5-min Rain = 0
KSDS 090905Z 31004KT M08/M09 A3027 RMK A01 T10831093  RH  092%=      5-min Rain = 0
KSDS 090910Z 31004KT M08/M09 A3027 RMK A01 T10811091  RH  092%=      5-min Rain = 0
KSDS 090915Z 31004KT M08/M09 A3027 RMK A01 T10811091  RH  092%=      5-min Rain = 0
KSDS 090920Z 30004KT M08/M09 A3027 RMK A01 T10821091  RH  092%=      5-min Rain = 0
KSDS 090925Z 30004KT M08/M09 A3027 RMK A01 T10821092  RH  092%=      5-min Rain = 0
KSDS 090930Z 30004KT M08/M09 A3027 RMK A01 T10821093  RH  092%=      5-min Rain = 0
KSDS 090935Z 30004KT M08/M09 A3027 RMK A01 T10831094  RH  092%=      5-min Rain = 0
KSDS 090940Z 30004KT M08/M09 A3027 RMK A01 T10831093  RH  092%=      5-min Rain = 0
KSDS 090945Z 31004KT M08/M09 A3028 RMK A01 T10821092  RH  092%=      5-min Rain = 0
KSDS 090950Z 31004KT M08/M09 A3027 RMK A01 T10811091  RH  093%=      5-min Rain = 0
KSDS 090955Z 30004KT M08/M09 A3027 RMK A01 T10811091  RH  092%=      5-min Rain = 0
KSDS 091000Z 30004KT M08/M09 A3027 RMK A01 T10821092  RH  092%=      5-min Rain = 0
KSDS 091005Z 30003KT M08/M09 A3027 RMK A01 T10821092  RH  092%=      5-min Rain = 0
KSDS 091010Z 29004KT M08/M09 A3027 RMK A01 T10821093  RH  092%=      5-min Rain = 0
KSDS 091015Z 30004KT M08/M09 A3027 RMK A01 T10821093  RH  092%=      5-min Rain = 0
KSDS 091020Z 30004KT M08/M09 A3027 RMK A01 T10831093  RH  092%=      5-min Rain = 0
KSDS 091025Z 31004KT M08/M09 A3027 RMK A01 T10811091  RH  092%=      5-min Rain = 0
KSDS 091030Z 31004KT M08/M09 A3027 RMK A01 T10791089  RH  093%=      5-min Rain = 0
KSDS 091035Z 31003KT M08/M09 A3027 RMK A01 T10781088  RH  093%=      5-min Rain = 0
KSDS 091040Z 31003KT M08/M09 A3027 RMK A01 T10761086  RH  093%=      5-min Rain = 0
KSDS 091045Z 31003KT M08/M09 A3027 RMK A01 T10761085  RH  093%=      5-min Rain = 0
KSDS 091050Z 31003KT M08/M09 A3027 RMK A01 T10751085  RH  092%=      5-min Rain = 0
KSDS 091055Z 32003KT M08/M09 A3027 RMK A01 T10751085  RH  092%=      5-min Rain = 0
KSDS 091100Z 32003KT M08/M09 A3027 RMK A01 T10751086  RH  092%=      5-min Rain = 0
KSDS 091105Z 32004KT M08/M09 A3028 RMK A01 T10751085  RH  092%=      5-min Rain = 0
KSDS 091110Z 32004KT M08/M09 A3028 RMK A01 T10751085  RH  092%=      5-min Rain = 0
KSDS 091115Z 32004KT M07/M08 A3028 RMK A01 T10741084  RH  092%=      5-min Rain = 0
KSDS 091120Z 32004KT M07/M08 A3028 RMK A01 T10731083  RH  092%=      5-min Rain = 0
KSDS 091125Z 32004KT M07/M08 A3028 RMK A01 T10731083  RH  092%=      5-min Rain = 0
KSDS 091130Z 31004KT M07/M08 A3028 RMK A01 T10731083  RH  092%=      5-min Rain = 0
KSDS 091135Z 31004KT M07/M08 A3028 RMK A01 T10741084  RH  092%=      5-min Rain = 0
KSDS 091140Z 32004KT M07/M08 A3029 RMK A01 T10731083  RH  092%=      5-min Rain = 0
KSDS 091145Z 32003KT M07/M08 A3029 RMK A01 T10731084  RH  092%=      5-min Rain = 0
KSDS 091150Z 32004KT M08/M09 A3029 RMK A01 T10751086  RH  092%=      5-min Rain = 0
KSDS 091155Z 31003KT M08/M09 A3029 RMK A01 T10771088  RH  091%=      5-min Rain = 0
KSDS 091200Z 31004KT M08/M09 A3029 RMK A01 T10791090  RH  091%=      5-min Rain = 0
KSDS 091205Z 31004KT M08/M09 A3029 RMK A01 T10801091  RH  091%=      5-min Rain = 0
KSDS 091210Z 31004KT M08/M09 A3029 RMK A01 T10811092  RH  091%=      5-min Rain = 0
KSDS 091215Z 32004KT M08/M09 A3029 RMK A01 T10801092  RH  091%=      5-min Rain = 0
KSDS 091220Z 32003KT M08/M09 A303 RMK A01 T10781088  RH  092%=      5-min Rain = 0
KSDS 091225Z 32003KT M08/M09 A303 RMK A01 T10771088  RH  092%=      5-min Rain = 0
KSDS 091230Z 31004KT M08/M09 A303 RMK A01 T10771088  RH  092%=      5-min Rain = 0
KSDS 091235Z 31004KT M08/M09 A303 RMK A01 T10791090  RH  091%=      5-min Rain = 0
KSDS 091240Z 32004KT M08/M09 A303 RMK A01 T10781089  RH  092%=      5-min Rain = 0
KSDS 091245Z 32005KT M08/M09 A303 RMK A01 T10761087  RH  092%=      5-min Rain = 0
KSDS 091250Z 32004KT M08/M09 A303 RMK A01 T10771088  RH  092%=      5-min Rain = 0
KSDS 091255Z 32004KT M08/M09 A303 RMK A01 T10761087  RH  092%=      5-min Rain = 0
KSDS 091300Z 32004KT M07/M09 A3031 RMK A01 T10741085  RH  092%=      5-min Rain = 0
KSDS 091305Z 32004KT M08/M09 A3031 RMK A01 T10751086  RH  092%=      5-min Rain = 0
KSDS 091310Z 32004KT M08/M09 A3031 RMK A01 T10751086  RH  092%=      5-min Rain = 0
KSDS 091315Z 32004KT M08/M09 A3031 RMK A01 T10751086  RH  092%=      5-min Rain = 0
KSDS 091320Z 30004KT M08/M09 A3032 RMK A01 T10771088  RH  091%=      5-min Rain = 0
KSDS 091325Z 29005KT M08/M09 A3032 RMK A01 T10791091  RH  091%=      5-min Rain = 0
KSDS 091330Z 30005KT M08/M09 A3032 RMK A01 T10771089  RH  091%=      5-min Rain = 0
KSDS 091335Z 29005KT M08/M09 A3033 RMK A01 T10781089  RH  091%=      5-min Rain = 0
KSDS 091340Z 30005KT M08/M09 A3033 RMK A01 T10781090  RH  091%=      5-min Rain = 0
KSDS 091345Z 30005KT M08/M09 A3033 RMK A01 T10771088  RH  091%=      5-min Rain = 0
KSDS 091350Z 30005KT M08/M09 A3033 RMK A01 T10771089  RH  091%=      5-min Rain = 0
KSDS 091355Z 30005KT M08/M09 A3033 RMK A01 T10761087  RH  092%=      5-min Rain = 0
KSDS 091400Z 30005KT M08/M09 A3033 RMK A01 T10761087  RH  091%=      5-min Rain = 0
KSDS 091405Z 31005KT M08/M09 A3034 RMK A01 T10761087  RH  091%=      5-min Rain = 0
KSDS 091410Z 31004KT M07/M08 A3034 RMK A01 T10711081  RH  092%=      5-min Rain = 0
KSDS 091415Z 31003KT M07/M08 A3034 RMK A01 T10681079  RH  092%=      5-min Rain = 0
KSDS 091420Z 30002KT M07/M08 A3034 RMK A01 T10681079  RH  092%=      5-min Rain = 0
KSDS 091425Z 30003KT M07/M08 A3034 RMK A01 T10671077  RH  092%=      5-min Rain = 0
KSDS 091430Z 30003KT M07/M08 A3034 RMK A01 T10651075  RH  092%=      5-min Rain = 0
KSDS 091435Z 30004KT M06/M07 A3034 RMK A01 T10621073  RH  092%=      5-min Rain = 0
KSDS 091440Z 29003KT M06/M07 A3035 RMK A01 T10611071  RH  092%=      5-min Rain = 0
KSDS 091445Z 29003KT M06/M07 A3035 RMK A01 T10601070  RH  092%=      5-min Rain = 0
KSDS 091450Z 29004KT M06/M07 A3035 RMK A01 T10581069  RH  092%=      5-min Rain = 0
KSDS 091455Z 30004KT M06/M07 A3035 RMK A01 T10571068  RH  092%=      5-min Rain = 0
KSDS 091500Z 30004KT M05/M06 A3035 RMK A01 T10541064  RH  093%=      5-min Rain = 0
KSDS 091505Z 30004KT M05/M06 A3036 RMK A01 T10511061  RH  093%=      5-min Rain = 0
KSDS 091510Z 30003KT M05/M06 A3036 RMK A01 T10481058  RH  093%=      5-min Rain = 0
KSDS 091515Z 30003KT M05/M06 A3036 RMK A01 T10461056  RH  093%=      5-min Rain = 0
KSDS 091520Z 30003KT M04/M05 A3036 RMK A01 T10441053  RH  093%=      5-min Rain = 0
KSDS 091525Z 30003KT M04/M05 A3036 RMK A01 T10411050  RH  094%=      5-min Rain = 0
KSDS 091530Z 31003KT M04/M05 A3037 RMK A01 T10381047  RH  094%=      5-min Rain = 0
KSDS 091535Z 31003KT M04/M04 A3037 RMK A01 T10351043  RH  094%=      5-min Rain = 0
KSDS 091540Z 32002KT M03/M04 A3037 RMK A01 T10321040  RH  094%=      5-min Rain = 0
KSDS 091545Z 31003KT M03/M04 A3037 RMK A01 T10291037  RH  095%=      5-min Rain = 0
KSDS 091550Z 31002KT M03/M03 A3038 RMK A01 T10261034  RH  095%=      5-min Rain = 0
KSDS 091555Z 31002KT M02/M03 A3038 RMK A01 T10241032  RH  095%=      5-min Rain = 0
KSDS 091600Z 32003KT M02/M03 A3038 RMK A01 T10221029  RH  095%=      5-min Rain = 0
KSDS 091605Z 33003KT M02/M03 A3038 RMK A01 T10201027  RH  096%=      5-min Rain = 0.01
KSDS 091610Z 33003KT M02/M02 A3038 RMK A01 T10181024  RH  096%=      5-min Rain = 0
KSDS 091615Z 34003KT M02/M02 A3038 RMK A01 T10161023  RH  096%=      5-min Rain = 0
KSDS 091620Z 34003KT M01/M02 A3038 RMK A01 T10141020  RH  096%=      5-min Rain = 0
KSDS 091625Z 34003KT M02/M02 A3038 RMK A01 T10151022  RH  096%=      5-min Rain = 0
KSDS 091630Z 33002KT M01/M02 A3038 RMK A01 T10121019  RH  096%=      5-min Rain = 0
KSDS 091635Z 32002KT M01/M02 A3038 RMK A01 T10101018  RH  096%=      5-min Rain = 0
KSDS 091640Z 31002KT M01/M02 A3039 RMK A01 T10081015  RH  096%=      5-min Rain = 0
KSDS 091645Z 32002KT M01/M01 A3039 RMK A01 T10051012  RH  096%=      5-min Rain = 0
KSDS 091650Z 34003KT M00/M01 A3039 RMK A01 T10041011  RH  096%=      5-min Rain = 0
KSDS 091655Z 34003KT M00/M01 A3038 RMK A01 T10021009  RH  096%=      5-min Rain = 0
KSDS 091700Z 35003KT 00/01 A3038 RMK A01 T00-000-7  RH  096%=      5-min Rain = 0
KSDS 091705Z 36003KT 00/M01 A3039 RMK A01 T00011006  RH  096%=      5-min Rain = 0
KSDS 091710Z 34003KT 00/M00 A3039 RMK A01 T00021004  RH  096%=      5-min Rain = 0.01
KSDS 091715Z 32002KT 00/M00 A3039 RMK A01 T00031003  RH  097%=      5-min Rain = 0.01
KSDS 091720Z 34002KT 00/M00 A3039 RMK A01 T00041002  RH  097%=      5-min Rain = 0.01
KSDS 091725Z 35003KT 01/M00 A3038 RMK A01 T00051001  RH  097%=      5-min Rain = 0
KSDS 091730Z 36003KT 01/00 A3038 RMK A01 T00080002  RH  097%=      5-min Rain = 0
KSDS 091735Z 34002KT 01/01 A3038 RMK A01 T00100005  RH  097%=      5-min Rain = 0
KSDS 091740Z 32002KT 01/00 A3038 RMK A01 T00100004  RH  097%=      5-min Rain = 0
KSDS 091745Z 31003KT 01/00 A3038 RMK A01 T00100004  RH  098%=      5-min Rain = 0
KSDS 091750Z 31002KT 01/01 A3038 RMK A01 T00110006  RH  098%=      5-min Rain = 0
KSDS 091755Z 32002KT 01/01 A3038 RMK A01 T00110007  RH  098%=      5-min Rain = 0
KSDS 091800Z 33002KT 01/01 A3038 RMK A01 T00120007  RH  098%=      5-min Rain = 0
KSDS 091805Z 34002KT 02/01 A3037 RMK A01 T00150010  RH  098%=      5-min Rain = 0
KSDS 091810Z 34001KT 02/01 A3037 RMK A01 T00180013  RH  097%=      5-min Rain = 0
KSDS 091815Z 34002KT 02/01 A3037 RMK A01 T00190011  RH  096%=      5-min Rain = 0
KSDS 091820Z 32002KT 02/01 A3036 RMK A01 T00200008  RH  093%=      5-min Rain = 0
KSDS 091825Z 31002KT 02/00 A3036 RMK A01 T00240002  RH  086%=      5-min Rain = 0
KSDS 091830Z 35001KT 03/M00 A3036 RMK A01 T00281001  RH  082%=      5-min Rain = 0
KSDS 091835Z 32001KT 03/M00 A3036 RMK A01 T00341001  RH  079%=      5-min Rain = 0
KSDS 091840Z 32001KT 03/M01 A3035 RMK A01 T00341005  RH  076%=      5-min Rain = 0
KSDS 091845Z 27000KT 04/M00 A3035 RMK A01 T00381004  RH  075%=      5-min Rain = 0
KSDS 091850Z 35001KT 05/00 A3035 RMK A01 T00510001  RH  071%=      5-min Rain = 0
KSDS 091855Z 34001KT 04/M01 A3035 RMK A01 T00441006  RH  071%=      5-min Rain = 0
KSDS 091900Z 31001KT 04/M01 A3034 RMK A01 T00421007  RH  071%=      5-min Rain = 0
KSDS 091905Z 28001KT 05/M01 A3034 RMK A01 T00461006  RH  070%=      5-min Rain = 0
KSDS 091910Z 29001KT 05/M01 A3034 RMK A01 T00461007  RH  070%=      5-min Rain = 0
KSDS 091915Z 28002KT 05/M01 A3034 RMK A01 T00451007  RH  070%=      5-min Rain = 0
KSDS 091920Z 24001KT 05/M01 A3034 RMK A01 T00451007  RH  070%=      5-min Rain = 0
KSDS 091925Z 27001KT 05/M01 A3034 RMK A01 T00521005  RH  068%=      5-min Rain = 0
KSDS 091930Z 32001KT 05/M01 A3034 RMK A01 T00491005  RH  069%=      5-min Rain = 0
KSDS 091935Z 29002KT 05/M01 A3034 RMK A01 T00491005  RH  069%=      5-min Rain = 0
KSDS 091940Z 29001KT 05/M00 A3034 RMK A01 T00511004  RH  068%=      5-min Rain = 0
KSDS 091945Z 28000KT 06/M00 A3033 RMK A01 T00561003  RH  067%=      5-min Rain = 0
KSDS 091950Z 30001KT 06/M00 A3033 RMK A01 T00631002  RH  064%=      5-min Rain = 0
KSDS 091955Z 29001KT 06/M01 A3033 RMK A01 T00551006  RH  065%=      5-min Rain = 0
KSDS 092000Z 31001KT 06/M01 A3033 RMK A01 T00631005  RH  062%=      5-min Rain = 0
KSDS 092005Z 31001KT 06/M01 A3033 RMK A01 T00581006  RH  064%=      5-min Rain = 0
KSDS 092010Z 33001KT 06/M01 A3033 RMK A01 T00621006  RH  063%=      5-min Rain = 0
KSDS 092015Z 32001KT 07/M01 A3033 RMK A01 T00681009  RH  059%=      5-min Rain = 0
KSDS 092020Z 29001KT 06/M01 A3033 RMK A01 T00601011  RH  061%=      5-min Rain = 0
KSDS 092025Z 31002KT 06/M01 A3033 RMK A01 T00561013  RH  061%=      5-min Rain = 0
KSDS 092030Z 32001KT 06/M01 A3033 RMK A01 T00611014  RH  059%=      5-min Rain = 0
KSDS 092035Z 34002KT 06/M02 A3033 RMK A01 T00621016  RH  058%=      5-min Rain = 0
KSDS 092040Z 25001KT 06/M02 A3033 RMK A01 T00631016  RH  057%=      5-min Rain = 0
KSDS 092045Z 34001KT 07/M02 A3032 RMK A01 T00671019  RH  055%=      5-min Rain = 0
KSDS 092050Z 33001KT 06/M02 A3032 RMK A01 T00611018  RH  057%=      5-min Rain = 0
KSDS 092055Z 33001KT 07/M02 A3032 RMK A01 T00661017  RH  056%=      5-min Rain = 0
KSDS 092100Z 33002KT 06/M02 A3032 RMK A01 T00631018  RH  057%=      5-min Rain = 0
KSDS 092105Z 32001KT 06/M02 A3032 RMK A01 T00621016  RH  058%=      5-min Rain = 0
KSDS 092110Z 33003KT 06/M01 A3032 RMK A01 T00601014  RH  060%=      5-min Rain = 0
KSDS 092115Z 35004KT 06/M01 A3032 RMK A01 T00581014  RH  060%=      5-min Rain = 0
KSDS 092120Z 00003KT 06/M01 A3032 RMK A01 T00591014  RH  060%=      5-min Rain = 0
KSDS 092125Z 00003KT 06/M02 A3032 RMK A01 T00591015  RH  059%=      5-min Rain = 0
KSDS 092130Z 35003KT 06/M01 A3032 RMK A01 T00601013  RH  060%=      5-min Rain = 0
KSDS 092135Z 34003KT 06/M01 A3032 RMK A01 T00591014  RH  060%=      5-min Rain = 0
KSDS 092140Z 01002KT 06/M02 A3032 RMK A01 T00581015  RH  060%=      5-min Rain = 0
KSDS 092145Z 33002KT 06/M02 A3032 RMK A01 T00621016  RH  058%=      5-min Rain = 0
KSDS 092150Z 33002KT 06/M02 A3032 RMK A01 T00591022  RH  056%=      5-min Rain = 0
KSDS 092155Z 33001KT 06/M02 A3033 RMK A01 T00621021  RH  056%=      5-min Rain = 0
KSDS 092200Z 31002KT 06/M02 A3033 RMK A01 T00601022  RH  056%=      5-min Rain = 0
KSDS 092205Z 35002KT 06/M02 A3033 RMK A01 T00581020  RH  057%=      5-min Rain = 0
KSDS 092210Z 35002KT 06/M02 A3033 RMK A01 T00581018  RH  059%=      5-min Rain = 0
KSDS 092215Z 34003KT 06/M02 A3033 RMK A01 T00571018  RH  059%=      5-min Rain = 0
KSDS 092220Z 36002KT 06/M02 A3033 RMK A01 T00561020  RH  058%=      5-min Rain = 0
KSDS 092225Z 35003KT 06/M02 A3033 RMK A01 T00571020  RH  058%=      5-min Rain = 0
KSDS 092230Z 33002KT 06/M02 A3033 RMK A01 T00571021  RH  058%=      5-min Rain = 0
KSDS 092235Z 35002KT 06/M02 A3033 RMK A01 T00561022  RH  058%=      5-min Rain = 0
KSDS 092240Z 36003KT 06/M02 A3033 RMK A01 T00561019  RH  059%=      5-min Rain = 0
KSDS 092245Z 34003KT 05/M02 A3033 RMK A01 T00541019  RH  060%=      5-min Rain = 0
KSDS 092250Z 34001KT 05/M02 A3033 RMK A01 T00531019  RH  060%=      5-min Rain = 0
KSDS 092255Z 34002KT 05/M02 A3033 RMK A01 T00531018  RH  061%=      5-min Rain = 0
KSDS 092300Z 33002KT 05/M02 A3033 RMK A01 T00531018  RH  061%=      5-min Rain = 0
KSDS 092305Z 33002KT 05/M02 A3033 RMK A01 T00521018  RH  061%=      5-min Rain = 0
KSDS 092310Z 33001KT 05/M02 A3033 RMK A01 T00521017  RH  062%=      5-min Rain = 0
KSDS 092315Z 32001KT 06/M02 A3033 RMK A01 T00571016  RH  060%=      5-min Rain = 0
KSDS 092320Z 32000KT 06/M02 A3033 RMK A01 T00611016  RH  058%=      5-min Rain = 0
KSDS 092325Z 00000KT 06/M02 A3033 RMK A01 T00571019  RH  059%=      5-min Rain = 0
KSDS 092330Z 00000KT 05/M02 A3033 RMK A01 T00511020  RH  061%=      5-min Rain = 0
KSDS 092335Z 00000KT 05/M02 A3033 RMK A01 T00461021  RH  062%=      5-min Rain = 0
KSDS 092340Z 07000KT 04/M02 A3033 RMK A01 T00421022  RH  064%=      5-min Rain = 0
KSDS 092345Z 07001KT 04/M02 A3033 RMK A01 T00391023  RH  065%=      5-min Rain = 0
KSDS 092350Z 05002KT 04/M02 A3033 RMK A01 T00381023  RH  065%=      5-min Rain = 0
KSDS 092355Z 04003KT 03/M03 A3033 RMK A01 T00331026  RH  065%=      5-min Rain = 0
KSDS 100000Z 03003KT 03/M03 A3033 RMK A01 T00251029  RH  068%=      5-min Rain = 0
KSDS 100005Z 04004KT 02/M03 A3033 RMK A01 T00231030  RH  069%=      5-min Rain = 0
KSDS 100010Z 07005KT 02/M03 A3033 RMK A01 T00151032  RH  072%=      5-min Rain = 0
KSDS 100015Z 09006KT 01/M03 A3033 RMK A01 T00081031  RH  075%=      5-min Rain = 0
KSDS 100020Z 09006KT 00/M03 A3034 RMK A01 T00031026  RH  082%=      5-min Rain = 0
KSDS 100025Z 10007KT 00/M02 A3034 RMK A01 T00011022  RH  085%=      5-min Rain = 0
KSDS 100030Z 10006KT 00/M02 A3033 RMK A01 T00021019  RH  086%=      5-min Rain = 0
KSDS 100035Z 10006KT 00/02 A3034 RMK A01 T00000-21  RH  086%=      5-min Rain = 0
KSDS 100040Z 11006KT M00/M02 A3034 RMK A01 T10011020  RH  088%=      5-min Rain = 0
KSDS 100045Z 12006KT M00/M02 A3034 RMK A01 T10021021  RH  088%=      5-min Rain = 0
KSDS 100050Z 13005KT M01/M02 A3034 RMK A01 T10051023  RH  089%=      5-min Rain = 0
KSDS 100055Z 14006KT M01/M03 A3034 RMK A01 T10101027  RH  089%=      5-min Rain = 0
KSDS 100100Z 15006KT M02/M03 A3034 RMK A01 T10161030  RH  091%=      5-min Rain = 0
KSDS 100105Z 15006KT M02/M03 A3034 RMK A01 T10171029  RH  092%=      5-min Rain = 0
KSDS 100110Z 15006KT M02/M03 A3034 RMK A01 T10151027  RH  093%=      5-min Rain = 0
KSDS 100115Z 15006KT M02/M03 A3034 RMK A01 T10161028  RH  092%=      5-min Rain = 0
KSDS 100120Z 15006KT M02/M03 A3034 RMK A01 T10161027  RH  093%=      5-min Rain = 0
KSDS 100125Z 16005KT M02/M03 A3034 RMK A01 T10151026  RH  093%=      5-min Rain = 0
KSDS 100130Z 17006KT M02/M03 A3034 RMK A01 T10161028  RH  092%=      5-min Rain = 0
KSDS 100135Z 17005KT M02/M03 A3034 RMK A01 T10191030  RH  093%=      5-min Rain = 0
KSDS 100140Z 17005KT M02/M03 A3034 RMK A01 T10171028  RH  093%=      5-min Rain = 0
KSDS 100145Z 16004KT M02/M03 A3035 RMK A01 T10191029  RH  093%=      5-min Rain = 0
KSDS 100150Z 16003KT M02/M03 A3035 RMK A01 T10191029  RH  094%=      5-min Rain = 0
KSDS 100155Z 15002KT M02/M03 A3036 RMK A01 T10221032  RH  093%=      5-min Rain = 0
KSDS 100200Z 15003KT M02/M03 A3036 RMK A01 T10211030  RH  094%=      5-min Rain = 0
KSDS 100205Z 16003KT M02/M03 A3036 RMK A01 T10191027  RH  095%=      5-min Rain = 0
KSDS 100210Z 17003KT M02/M03 A3036 RMK A01 T10201029  RH  094%=      5-min Rain = 0
KSDS 100215Z 15003KT M02/M03 A3036 RMK A01 T10201028  RH  094%=      5-min Rain = 0
KSDS 100220Z 14003KT M02/M03 A3036 RMK A01 T10181026  RH  095%=      5-min Rain = 0
KSDS 100225Z 15003KT M02/M02 A3036 RMK A01 T10151022  RH  096%=      5-min Rain = 0
KSDS 100230Z 16004KT M01/M02 A3036 RMK A01 T10141023  RH  094%=      5-min Rain = 0
KSDS 100235Z 14003KT M01/M02 A3037 RMK A01 T10141023  RH  094%=      5-min Rain = 0
KSDS 100240Z 13003KT M01/M02 A3037 RMK A01 T10141024  RH  094%=      5-min Rain = 0
KSDS 100245Z 12002KT M02/M03 A3037 RMK A01 T10181028  RH  094%=      5-min Rain = 0
KSDS 100250Z 13001KT M02/M03 A3037 RMK A01 T10241032  RH  094%=      5-min Rain = 0
KSDS 100255Z 13001KT M03/M03 A3037 RMK A01 T10261033  RH  095%=      5-min Rain = 0
KSDS 100300Z 13001KT M03/M04 A3037 RMK A01 T10291036  RH  095%=      5-min Rain = 0
KSDS 100305Z 15001KT M03/M04 A3037 RMK A01 T10301037  RH  095%=      5-min Rain = 0
KSDS 100310Z 16001KT M03/M04 A3037 RMK A01 T10331041  RH  095%=      5-min Rain = 0
KSDS 100315Z 16000KT M04/M05 A3037 RMK A01 T10381047  RH  094%=      5-min Rain = 0
KSDS 100320Z 26000KT M04/M05 A3037 RMK A01 T10441054  RH  093%=      5-min Rain = 0
KSDS 100325Z 28002KT M05/M06 A3037 RMK A01 T10471056  RH  093%=      5-min Rain = 0
KSDS 100330Z 29003KT M05/M06 A3038 RMK A01 T10491059  RH  093%=      5-min Rain = 0
KSDS 100335Z 28003KT M05/M06 A3038 RMK A01 T10501059  RH  094%=      5-min Rain = 0
KSDS 100340Z 29005KT M05/M06 A3038 RMK A01 T10501059  RH  094%=      5-min Rain = 0
KSDS 100345Z 29005KT M05/M06 A3038 RMK A01 T10511059  RH  094%=      5-min Rain = 0
KSDS 100350Z 28005KT M05/M06 A3038 RMK A01 T10511060  RH  094%=      5-min Rain = 0
KSDS 100355Z 28005KT M05/M06 A3038 RMK A01 T10481056  RH  094%=      5-min Rain = 0
KSDS 100400Z 28005KT M05/M06 A3038 RMK A01 T10471056  RH  094%=      5-min Rain = 0
KSDS 100405Z 28007KT M05/M06 A3038 RMK A01 T10491059  RH  094%=      5-min Rain = 0
KSDS 100410Z 29007KT M05/M06 A3038 RMK A01 T10501060  RH  093%=      5-min Rain = 0
KSDS 100415Z 28007KT M05/M06 A3038 RMK A01 T10501059  RH  094%=      5-min Rain = 0
KSDS 100420Z 28008KT M05/M06 A3038 RMK A01 T10491058  RH  094%=      5-min Rain = 0
KSDS 100425Z 29008KT M05/M06 A3039 RMK A01 T10511060  RH  093%=      5-min Rain = 0
KSDS 100430Z 29007KT M05/M06 A3039 RMK A01 T10531063  RH  093%=      5-min Rain = 0
KSDS 100435Z 29007KT M05/M06 A3039 RMK A01 T10541064  RH  093%=      5-min Rain = 0
KSDS 100440Z 29007KT M05/M06 A3039 RMK A01 T10541063  RH  093%=      5-min Rain = 0
KSDS 100445Z 29007KT M05/M06 A3039 RMK A01 T10531062  RH  093%=      5-min Rain = 0
KSDS 100450Z 29007KT M05/M06 A3039 RMK A01 T10541063  RH  093%=      5-min Rain = 0
KSDS 100455Z 29008KT M05/M06 A3039 RMK A01 T10531062  RH  093%=      5-min Rain = 0
KSDS 100500Z 30008KT M06/M07 A3039 RMK A01 T10551065  RH  093%=      5-min Rain = 0
KSDS 100505Z 29007KT M06/M07 A3039 RMK A01 T10561066  RH  093%=      5-min Rain = 0
KSDS 100510Z 29007KT M05/M06 A3039 RMK A01 T10531062  RH  093%=      5-min Rain = 0
KSDS 100515Z 29006KT M05/M06 A3038 RMK A01 T10501060  RH  093%=      5-min Rain = 0
KSDS 100520Z 29006KT M05/M06 A3039 RMK A01 T10501060  RH  093%=      5-min Rain = 0
KSDS 100525Z 29007KT M05/M06 A3039 RMK A01 T10511061  RH  093%=      5-min Rain = 0
KSDS 100530Z 29007KT M05/M06 A3039 RMK A01 T10521062  RH  093%=      5-min Rain = 0
KSDS 100535Z 29007KT M05/M06 A3039 RMK A01 T10521063  RH  092%=      5-min Rain = 0
KSDS 100540Z 29006KT M05/M07 A3039 RMK A01 T10541065  RH  092%=      5-min Rain = 0
KSDS 100545Z 29007KT M05/M06 A3039 RMK A01 T10541064  RH  092%=      5-min Rain = 0
KSDS 100550Z 28007KT M05/M06 A3038 RMK A01 T10521062  RH  093%=      5-min Rain = 0
KSDS 100555Z 28007KT M05/M06 A3038 RMK A01 T10531063  RH  093%=      5-min Rain = 0

Page generated in 0.0087 seconds.